createdAt,value
2022-12-24T06:33:49.395Z,89.28
2022-12-24T06:34:51.293Z,89.23
2022-12-24T06:35:53.111Z,89.36
2022-12-24T06:36:54.938Z,89.39
2022-12-24T06:37:56.653Z,89.31
2022-12-24T06:38:58.439Z,89.52
2022-12-24T06:40:00.159Z,89.71
2022-12-24T06:41:07.134Z,89.99
2022-12-24T06:42:09.049Z,90.01
2022-12-24T06:43:11.159Z,90.03
2022-12-24T06:44:12.943Z,89.94
2022-12-24T06:45:14.689Z,90.06
2022-12-24T06:46:17.787Z,89.98
2022-12-24T06:47:19.611Z,90.10
2022-12-24T06:48:21.419Z,90.37
2022-12-24T06:49:23.156Z,90.88
2022-12-24T06:50:24.904Z,91.33
2022-12-24T06:51:26.631Z,91.47
2022-12-24T06:52:28.433Z,91.36
2022-12-24T06:53:31.364Z,91.29
2022-12-24T06:54:33.335Z,90.86
2022-12-24T06:55:35.189Z,90.71
2022-12-24T06:56:36.908Z,90.82
2022-12-24T06:57:38.634Z,90.85
2022-12-24T06:58:41.813Z,90.83
2022-12-24T06:59:43.669Z,90.92
2022-12-24T07:00:47.935Z,91.15
2022-12-24T07:01:49.844Z,91.32
2022-12-24T07:02:51.907Z,91.21
2022-12-24T07:03:53.673Z,90.76
2022-12-24T07:04:55.666Z,90.50
2022-12-24T07:05:57.981Z,90.08
2022-12-24T07:06:59.693Z,89.93
2022-12-24T07:08:01.417Z,90.28
2022-12-24T07:09:03.384Z,90.11
2022-12-24T07:10:06.395Z,90.04
2022-12-24T07:11:08.179Z,89.69
2022-12-24T07:12:09.895Z,89.47
2022-12-24T07:13:11.650Z,89.15
2022-12-24T07:14:13.372Z,88.45
2022-12-24T07:15:16.283Z,88.20
2022-12-24T07:16:18.428Z,87.92
2022-12-24T07:17:20.376Z,87.49
2022-12-24T07:18:22.355Z,87.32
2022-12-24T07:19:24.216Z,87.21
2022-12-24T07:20:26.176Z,86.83
2022-12-24T07:21:27.912Z,86.89
2022-12-24T07:22:29.868Z,86.77
2022-12-24T07:23:31.634Z,86.59
2022-12-24T07:24:33.621Z,86.54
2022-12-24T07:25:35.495Z,86.98
2022-12-24T07:26:37.388Z,87.03
2022-12-24T07:27:39.639Z,87.04
2022-12-24T07:28:41.434Z,87.09
2022-12-24T07:29:43.423Z,87.15
2022-12-24T07:30:45.509Z,87.36
2022-12-24T07:31:47.382Z,87.78
2022-12-24T07:32:49.287Z,87.61
2022-12-24T07:33:51.037Z,87.53
2022-12-24T07:34:52.875Z,87.60
2022-12-24T07:36:02.360Z,87.53
2022-12-24T07:37:04.153Z,87.65
2022-12-24T07:38:06.077Z,87.79
2022-12-24T07:39:07.821Z,87.92
2022-12-24T07:40:10.085Z,88.26
2022-12-24T07:41:12.286Z,88.18
2022-12-24T07:42:14.139Z,88.19
2022-12-24T07:43:16.079Z,88.40
2022-12-24T07:44:17.993Z,88.47
2022-12-24T07:45:19.934Z,88.76
2022-12-24T07:46:21.865Z,88.84
2022-12-24T07:47:23.818Z,88.79
2022-12-24T07:48:27.443Z,88.61
2022-12-24T07:49:29.310Z,88.65
2022-12-24T07:50:31.247Z,88.05
2022-12-24T07:51:33.129Z,88.15
2022-12-24T07:52:35.039Z,87.93
2022-12-24T07:53:39.242Z,88.01
2022-12-24T07:54:41.935Z,88.25
2022-12-24T07:57:33.379Z,87.79
2022-12-24T07:58:35.082Z,88.20
2022-12-24T07:59:36.888Z,88.12
2022-12-24T08:00:38.650Z,88.51
2022-12-24T08:01:41.908Z,88.17
2022-12-24T08:02:45.720Z,87.96
2022-12-24T08:03:49.139Z,88.09
2022-12-24T08:04:52.605Z,88.07
2022-12-24T08:05:54.466Z,88.17
2022-12-24T08:06:56.326Z,87.57
2022-12-24T08:07:59.665Z,87.96
2022-12-24T08:09:02.889Z,87.57
2022-12-24T08:10:06.181Z,87.35
2022-12-24T08:11:09.140Z,87.27
2022-12-24T08:12:11.050Z,87.16
2022-12-24T08:13:14.860Z,86.99
2022-12-24T08:14:17.542Z,87.03
2022-12-24T08:15:19.324Z,86.58
2022-12-24T08:16:22.562Z,86.22
2022-12-24T08:17:31.871Z,85.76
2022-12-24T08:18:36.093Z,85.35
2022-12-24T08:19:39.393Z,85.11
2022-12-24T08:20:42.412Z,84.91
2022-12-24T08:21:45.413Z,84.67
2022-12-24T08:22:48.802Z,84.48
2022-12-24T08:23:51.901Z,84.47
2022-12-24T08:24:54.954Z,84.71
2022-12-24T08:25:58.244Z,85.03
2022-12-24T08:27:01.299Z,84.80
2022-12-24T08:28:04.832Z,84.11
2022-12-24T08:29:08.381Z,84.86
2022-12-24T08:30:16.044Z,85.08
2022-12-24T08:31:22.478Z,85.19
2022-12-24T08:32:25.488Z,85.13
2022-12-24T08:33:28.564Z,85.20
2022-12-24T08:34:31.683Z,84.89
2022-12-24T08:35:35.064Z,85.49
2022-12-24T08:36:37.942Z,85.41
2022-12-24T08:37:41.085Z,85.07
2022-12-24T08:38:42.843Z,84.91
2022-12-24T08:39:45.901Z,85.04
2022-12-24T08:40:48.949Z,85.39
2022-12-24T08:41:52.026Z,85.12
2022-12-24T08:42:55.195Z,85.23
2022-12-24T08:43:58.288Z,84.94
2022-12-24T08:45:01.103Z,84.89
2022-12-24T08:46:07.161Z,85.00
2022-12-24T08:47:10.051Z,85.68
2022-12-24T08:48:12.808Z,86.07
2022-12-24T08:49:15.819Z,86.21
2022-12-24T08:50:17.701Z,86.01
2022-12-24T08:51:19.765Z,85.89
2022-12-24T08:52:21.657Z,85.91
2022-12-24T08:53:24.892Z,85.71
2022-12-24T08:54:27.996Z,85.30
2022-12-24T08:55:29.805Z,85.55
2022-12-24T08:56:33.016Z,85.41
2022-12-24T08:57:39.165Z,85.57
2022-12-24T08:58:41.327Z,85.25
2022-12-24T08:59:43.046Z,85.41
2022-12-24T09:00:44.835Z,85.10
2022-12-24T09:01:48.155Z,85.07
2022-12-24T09:02:51.784Z,85.13
2022-12-24T09:03:55.337Z,85.31
2022-12-24T09:04:57.150Z,85.13
2022-12-24T09:05:58.872Z,85.04
2022-12-24T09:07:00.668Z,85.25
2022-12-24T09:08:02.425Z,85.48
2022-12-24T09:09:05.200Z,85.98
2022-12-24T09:10:08.044Z,86.57
2022-12-24T09:11:13.398Z,86.87
2022-12-24T09:12:15.104Z,86.56
2022-12-24T09:13:16.839Z,86.68
2022-12-24T09:14:18.574Z,86.40
2022-12-24T09:15:20.353Z,86.53
2022-12-24T09:16:22.245Z,86.55
2022-12-24T09:17:25.287Z,86.25
2022-12-24T09:18:28.185Z,86.15
2022-12-24T09:19:29.936Z,85.76
2022-12-24T09:20:31.709Z,85.34
2022-12-24T09:21:33.488Z,84.87
2022-12-24T09:22:37.138Z,84.70
2022-12-24T09:23:39.337Z,85.18
2022-12-24T09:24:41.059Z,85.51
2022-12-24T09:25:44.083Z,85.90
2022-12-24T09:26:45.879Z,85.59
2022-12-24T09:27:47.619Z,85.64
2022-12-24T09:28:51.313Z,85.90
2022-12-24T09:29:53.191Z,85.45
2022-12-24T09:31:00.294Z,85.49
2022-12-24T09:32:02.221Z,85.39
2022-12-24T09:33:04.310Z,85.48
2022-12-24T09:34:06.039Z,84.92
2022-12-24T09:35:08.041Z,84.88
2022-12-24T09:36:10.299Z,84.59
2022-12-24T09:37:12.007Z,84.43
2022-12-24T09:38:13.785Z,84.50
2022-12-24T09:39:16.762Z,84.84
2022-12-24T09:40:32.361Z,85.01
2022-12-24T09:41:53.076Z,85.05
2022-12-24T09:42:55.293Z,84.84
2022-12-24T09:44:03.332Z,84.69
2022-12-24T09:45:20.979Z,84.36
2022-12-24T09:46:28.522Z,84.74
2022-12-24T09:47:40.223Z,84.05
2022-12-24T09:48:47.633Z,83.51
2022-12-24T09:49:53.468Z,83.30
2022-12-24T09:51:12.088Z,82.64
2022-12-24T09:52:31.125Z,82.52
2022-12-24T09:53:52.092Z,82.64
2022-12-24T09:55:06.067Z,82.62
2022-12-24T09:56:28.054Z,82.84
2022-12-24T09:57:37.075Z,82.43
2022-12-24T09:58:43.874Z,81.89
2022-12-24T09:59:48.028Z,81.64
2022-12-24T10:00:52.177Z,81.50
2022-12-24T10:01:55.308Z,82.02
2022-12-24T10:02:57.268Z,82.20
2022-12-24T10:04:03.569Z,82.42
2022-12-24T10:05:14.189Z,82.48
2022-12-24T10:06:28.532Z,82.38
2022-12-24T10:08:03.345Z,83.40
2022-12-24T10:09:37.570Z,83.77
2022-12-24T10:10:50.720Z,83.71
2022-12-24T10:12:08.401Z,83.81
2022-12-24T10:13:20.620Z,83.67
2022-12-24T10:15:13.429Z,83.73
2022-12-24T10:16:53.515Z,82.99
2022-12-24T10:18:32.315Z,82.76
2022-12-24T10:20:03.227Z,82.48
2022-12-24T10:21:43.025Z,81.49
2022-12-24T10:22:47.427Z,81.31
2022-12-24T10:24:06.445Z,80.71
2022-12-24T10:25:46.872Z,80.74
2022-12-24T10:27:01.035Z,81.53
2022-12-24T10:28:11.993Z,81.99
2022-12-24T10:29:18.456Z,81.94
2022-12-24T10:30:23.085Z,81.92
2022-12-24T10:31:32.101Z,81.64
2022-12-24T10:32:35.693Z,81.61
2022-12-24T10:33:44.689Z,81.61
2022-12-24T10:34:54.137Z,81.93
2022-12-24T10:35:59.539Z,81.65
2022-12-24T10:37:02.557Z,82.06
2022-12-24T10:38:05.565Z,82.58
2022-12-24T10:39:18.815Z,82.48
2022-12-24T10:40:41.220Z,82.50
2022-12-24T10:41:43.247Z,82.38
2022-12-24T10:42:51.044Z,82.60
2022-12-24T10:43:55.386Z,82.54
2022-12-24T10:45:03.413Z,82.34
2022-12-24T10:46:11.262Z,82.32
2022-12-24T10:47:13.949Z,82.12
2022-12-24T10:48:50.075Z,82.20
2022-12-24T10:50:11.760Z,82.12
2022-12-24T10:51:34.508Z,82.57
2022-12-24T10:52:40.946Z,82.44
2022-12-24T10:54:00.929Z,82.92
2022-12-24T10:55:21.214Z,82.49
2022-12-24T10:56:24.763Z,82.95
2022-12-24T10:58:53.801Z,83.70
2022-12-24T10:59:58.026Z,83.93
2022-12-24T11:01:01.429Z,84.04
2022-12-24T11:02:04.856Z,83.91
2022-12-24T11:03:13.362Z,83.81
2022-12-24T11:04:19.142Z,83.91
2022-12-24T11:05:59.182Z,83.86
2022-12-24T11:07:07.399Z,84.37
2022-12-24T11:08:19.837Z,84.55
2022-12-24T11:09:28.996Z,84.37
2022-12-24T11:10:33.918Z,84.56
2022-12-24T11:11:37.602Z,85.35
2022-12-24T11:13:00.142Z,85.22
2022-12-24T11:14:16.520Z,84.82
2022-12-24T11:15:32.477Z,84.37
2022-12-24T11:16:37.281Z,84.05
2022-12-24T11:17:40.590Z,83.87
2022-12-24T11:18:55.747Z,83.97
2022-12-24T11:19:59.194Z,83.70
2022-12-24T11:21:02.855Z,83.58
2022-12-24T11:22:09.364Z,83.67
2022-12-24T11:23:17.353Z,83.57
2022-12-24T11:24:27.014Z,83.38
2022-12-24T11:25:35.486Z,83.02
2022-12-24T11:26:39.498Z,82.62
2022-12-24T11:27:49.682Z,82.49
2022-12-24T11:29:29.531Z,81.70
2022-12-24T11:30:33.418Z,81.54
2022-12-24T11:31:37.563Z,81.33
2022-12-24T11:32:41.497Z,81.57
2022-12-24T11:33:52.917Z,81.97
2022-12-24T11:34:57.005Z,82.06
2022-12-24T11:36:07.383Z,82.06
2022-12-24T11:37:17.579Z,82.10
2022-12-24T11:38:24.471Z,81.55
2022-12-24T11:39:27.724Z,81.25
2022-12-24T11:40:47.930Z,81.32
2022-12-24T11:41:53.826Z,81.20
2022-12-24T11:43:01.077Z,81.93
2022-12-24T11:44:04.266Z,82.16
2022-12-24T11:45:08.694Z,82.44
2022-12-24T11:46:21.872Z,81.81
2022-12-24T11:47:40.951Z,81.54
2022-12-24T11:48:43.139Z,81.01
2022-12-24T11:49:46.754Z,80.57
2022-12-24T11:51:03.636Z,80.85
2022-12-24T11:52:18.410Z,80.97
2022-12-24T11:53:27.433Z,81.37
2022-12-24T11:54:34.453Z,81.84
2022-12-24T11:56:05.863Z,82.56
2022-12-24T11:57:13.246Z,82.87
2022-12-24T11:58:34.808Z,83.18
2022-12-24T11:59:48.464Z,83.07
2022-12-24T12:00:53.117Z,82.48
2022-12-24T12:01:59.637Z,81.81
2022-12-24T12:03:04.544Z,81.11
2022-12-24T12:04:28.602Z,80.94
2022-12-24T12:05:34.544Z,80.43
2022-12-24T12:06:49.062Z,80.52
2022-12-24T12:07:55.659Z,80.60
2022-12-24T12:09:03.916Z,81.04
2022-12-24T12:10:09.103Z,80.86
2022-12-24T12:11:14.986Z,80.84
2022-12-24T12:12:27.878Z,80.60
2022-12-24T12:13:33.788Z,80.67
2022-12-24T12:14:46.996Z,80.78
2022-12-24T12:16:04.904Z,80.78
2022-12-24T12:17:37.705Z,80.69
2022-12-24T12:18:44.939Z,80.56
2022-12-24T12:19:56.270Z,80.31
2022-12-24T12:21:07.613Z,80.41
2022-12-24T12:22:24.817Z,80.67
2022-12-24T12:23:38.142Z,80.64
2022-12-24T12:24:46.617Z,80.16
2022-12-24T12:26:10.166Z,79.60
2022-12-24T12:27:35.546Z,79.39
2022-12-24T12:29:29.651Z,78.64
2022-12-24T12:30:40.298Z,78.83
2022-12-24T12:31:49.912Z,78.97
2022-12-24T12:32:59.236Z,78.97
2022-12-24T12:34:18.027Z,78.94
2022-12-24T12:35:24.013Z,78.72
2022-12-24T12:36:34.315Z,78.59
2022-12-24T12:37:41.329Z,77.94
2022-12-24T12:38:44.794Z,78.23
2022-12-24T12:39:48.638Z,78.95
2022-12-24T12:41:29.265Z,79.37
2022-12-24T12:42:36.179Z,78.80
2022-12-24T12:43:48.250Z,78.16
2022-12-24T12:45:04.571Z,77.54
2022-12-24T12:46:31.641Z,77.49
2022-12-24T12:48:09.206Z,77.31
2022-12-24T12:49:12.105Z,77.41
2022-12-24T12:50:26.786Z,77.55
2022-12-24T12:51:40.900Z,77.93
2022-12-24T12:52:52.408Z,78.24
2022-12-24T12:54:27.445Z,78.66
2022-12-24T12:55:29.881Z,78.91
2022-12-24T12:56:37.660Z,78.93
2022-12-24T12:57:41.473Z,79.02
2022-12-24T12:58:52.220Z,79.33
2022-12-24T13:00:07.990Z,79.85
2022-12-24T13:01:13.466Z,80.39
2022-12-24T13:02:24.837Z,80.80
2022-12-24T13:03:42.584Z,81.22
2022-12-24T13:05:09.489Z,81.41
2022-12-24T13:06:40.195Z,81.57
2022-12-24T13:08:13.089Z,81.49
2022-12-24T13:09:56.493Z,81.75
2022-12-24T13:11:17.074Z,82.54
2022-12-24T13:12:50.913Z,82.88
2022-12-24T13:14:07.270Z,83.18
2022-12-24T13:15:15.613Z,83.54
2022-12-24T13:16:45.320Z,83.64
2022-12-24T13:18:12.183Z,83.55
2022-12-24T13:19:20.887Z,83.35
2022-12-24T13:20:33.620Z,82.76
2022-12-24T13:21:37.303Z,82.58
2022-12-24T13:22:39.885Z,82.82
2022-12-24T13:23:42.818Z,82.95
2022-12-24T13:24:53.701Z,83.20
2022-12-24T13:25:59.515Z,83.21
2022-12-24T13:27:16.366Z,83.69
2022-12-24T13:28:24.153Z,83.60
2022-12-24T13:29:56.117Z,83.77
2022-12-24T13:31:20.766Z,84.00
2022-12-24T13:32:23.165Z,83.97
2022-12-24T13:33:37.528Z,84.06
2022-12-24T13:34:40.907Z,83.83
2022-12-24T13:36:09.037Z,84.06
2022-12-24T13:37:24.479Z,84.37
2022-12-24T13:38:34.304Z,84.43
2022-12-24T13:40:15.174Z,85.04
2022-12-24T13:41:38.900Z,85.54
2022-12-24T13:43:00.989Z,85.74
2022-12-24T13:44:15.567Z,85.81
2022-12-24T13:45:30.383Z,86.05
2022-12-24T13:46:56.845Z,86.39
2022-12-24T13:48:08.573Z,86.79
2022-12-24T13:49:21.780Z,87.02
2022-12-24T13:50:51.993Z,86.73
2022-12-24T13:52:11.442Z,86.79
2022-12-24T13:53:25.000Z,87.03
2022-12-24T13:54:29.069Z,86.98
2022-12-24T13:55:32.561Z,86.98
2022-12-24T13:56:37.797Z,87.07
2022-12-24T13:58:06.003Z,87.46
2022-12-24T13:59:23.125Z,87.40
2022-12-24T14:00:43.101Z,87.36
2022-12-24T14:01:46.218Z,87.13
2022-12-24T14:03:44.522Z,86.82
2022-12-24T14:04:52.154Z,87.09
2022-12-24T14:06:05.082Z,86.87
2022-12-24T14:07:07.057Z,87.17
2022-12-24T14:08:25.958Z,86.93
2022-12-24T14:09:29.904Z,86.71
2022-12-24T14:10:46.224Z,86.67
2022-12-24T14:11:53.939Z,86.56
2022-12-24T14:12:57.399Z,86.59
2022-12-24T14:14:04.996Z,86.21
2022-12-24T14:15:44.263Z,86.19
2022-12-24T14:16:50.764Z,86.03
2022-12-24T14:17:53.049Z,85.74
2022-12-24T14:19:15.357Z,85.78
2022-12-24T14:20:18.450Z,85.54
2022-12-24T14:21:33.714Z,85.75
2022-12-24T14:22:45.535Z,85.96
2022-12-24T14:23:57.506Z,86.42
2022-12-24T14:25:04.988Z,86.91
2022-12-24T14:26:15.559Z,87.43
2022-12-24T14:27:22.414Z,87.95
2022-12-24T14:28:33.885Z,88.38
2022-12-24T14:29:44.942Z,88.41
2022-12-24T14:31:00.330Z,89.18
2022-12-24T14:32:13.009Z,89.48
2022-12-24T14:33:33.746Z,90.19
2022-12-24T14:34:37.300Z,90.55
2022-12-24T14:35:41.317Z,90.55
2022-12-24T14:36:47.101Z,90.48
2022-12-24T14:38:08.587Z,90.46
2022-12-24T14:39:22.729Z,90.38
2022-12-24T14:40:34.169Z,90.44
2022-12-24T14:42:05.547Z,90.76
2022-12-24T14:43:15.019Z,91.03
2022-12-24T14:44:35.531Z,91.12
2022-12-24T14:45:56.898Z,91.79
2022-12-24T14:47:22.963Z,91.84
2022-12-24T14:48:39.527Z,92.47
2022-12-24T14:49:59.886Z,92.63
2022-12-24T14:51:14.909Z,92.34
2022-12-24T14:54:19.520Z,93.12
2022-12-24T14:55:46.222Z,93.30
2022-12-24T14:56:48.035Z,93.64
2022-12-24T14:57:51.335Z,93.45
2022-12-24T14:58:54.488Z,93.66
2022-12-24T15:00:03.141Z,93.60
2022-12-24T15:01:27.264Z,93.68
2022-12-24T15:02:50.403Z,93.96
2022-12-24T15:04:04.486Z,93.92
2022-12-24T15:05:15.563Z,94.12
2022-12-24T15:06:19.220Z,94.03
2022-12-24T15:07:22.646Z,94.16
2022-12-24T15:08:34.449Z,94.03
2022-12-24T15:09:38.200Z,93.97
2022-12-24T15:10:44.770Z,94.35
2022-12-24T15:11:49.194Z,94.27
2022-12-24T15:12:51.715Z,94.28
2022-12-24T15:13:57.122Z,94.15
2022-12-24T15:15:00.040Z,94.26
2022-12-24T15:16:08.949Z,94.25
2022-12-24T15:17:26.063Z,94.20
2022-12-24T15:18:32.067Z,94.19
2022-12-24T15:19:43.488Z,94.07
2022-12-24T15:20:49.585Z,94.36
2022-12-24T15:21:54.520Z,94.10
2022-12-24T15:23:01.174Z,93.88
2022-12-24T15:24:04.848Z,93.90
2022-12-24T15:25:19.067Z,94.16
2022-12-24T15:26:23.134Z,94.03
2022-12-24T15:27:33.029Z,93.60
2022-12-24T15:28:40.128Z,93.75
2022-12-24T15:29:48.334Z,93.84
2022-12-24T15:31:09.074Z,93.93
2022-12-24T15:32:15.067Z,94.00
2022-12-24T15:33:18.758Z,93.58
2022-12-24T15:34:41.295Z,93.82
2022-12-24T15:35:48.039Z,93.74
2022-12-24T15:36:49.970Z,93.72
2022-12-24T15:37:55.369Z,93.65
2022-12-24T15:39:23.079Z,93.33
2022-12-24T15:40:44.680Z,93.25
2022-12-24T15:41:51.608Z,93.54
2022-12-24T15:42:55.173Z,93.52
2022-12-24T15:44:03.035Z,93.66
2022-12-24T15:45:31.692Z,93.57
2022-12-24T15:46:35.425Z,93.80
2022-12-24T15:47:46.599Z,93.96
2022-12-24T15:48:50.651Z,94.36
2022-12-24T15:50:19.848Z,94.61
2022-12-24T15:51:26.179Z,94.73
2022-12-24T15:52:29.952Z,94.71
2022-12-24T15:53:39.804Z,94.96
2022-12-24T15:54:57.145Z,95.18
2022-12-24T15:56:11.380Z,95.64
2022-12-24T15:57:35.066Z,95.41
2022-12-24T15:58:42.704Z,95.39
2022-12-24T15:59:52.789Z,95.57
2022-12-24T16:01:33.605Z,95.96
2022-12-24T16:02:45.120Z,95.69
2022-12-24T16:03:51.055Z,96.19
2022-12-24T16:04:53.074Z,95.67
2022-12-24T16:07:32.323Z,95.89
2022-12-24T16:08:39.353Z,95.90
2022-12-24T16:09:44.263Z,95.95
2022-12-24T16:10:49.989Z,95.96
2022-12-24T16:11:51.882Z,96.11
2022-12-24T16:12:53.729Z,95.87
2022-12-24T16:14:00.725Z,95.70
2022-12-24T16:15:02.724Z,95.70
2022-12-24T16:16:11.646Z,95.44
2022-12-24T16:17:20.524Z,95.64
2022-12-24T16:18:26.290Z,95.08
2022-12-24T16:19:50.013Z,95.31
2022-12-24T16:20:54.995Z,95.50
2022-12-24T16:22:03.246Z,95.33
2022-12-24T16:23:06.873Z,95.31
2022-12-24T16:24:20.639Z,95.26
2022-12-24T16:25:26.661Z,95.30
2022-12-24T16:26:30.148Z,95.36
2022-12-24T16:27:32.010Z,95.09
2022-12-24T16:28:34.054Z,95.13
2022-12-24T16:29:35.912Z,95.13
2022-12-24T16:30:39.269Z,94.88
2022-12-24T16:31:54.042Z,95.20
2022-12-24T16:32:55.941Z,94.94
2022-12-24T16:33:59.930Z,94.93
2022-12-24T16:35:08.396Z,94.81
2022-12-24T16:36:13.972Z,95.12
2022-12-24T16:37:18.716Z,94.90
2022-12-24T16:38:22.173Z,94.54
2022-12-24T16:39:35.581Z,95.48
2022-12-24T16:40:37.666Z,95.49
2022-12-24T16:41:39.522Z,95.66
2022-12-24T16:42:41.446Z,95.52
2022-12-24T16:43:44.089Z,95.64
2022-12-24T16:44:46.570Z,95.48
2022-12-24T16:45:49.394Z,95.71
2022-12-24T16:46:53.565Z,95.26
2022-12-24T16:47:58.662Z,95.64
2022-12-24T16:49:00.410Z,95.85
2022-12-24T16:50:06.297Z,95.47
2022-12-24T16:51:10.048Z,96.11
2022-12-24T16:52:38.929Z,97.06
2022-12-24T16:53:42.683Z,96.72
2022-12-24T16:54:44.466Z,96.90
2022-12-24T16:55:47.942Z,97.08
2022-12-24T16:56:52.047Z,96.92
2022-12-24T16:57:56.683Z,96.71
2022-12-24T16:59:01.071Z,96.42
2022-12-24T17:00:07.840Z,96.87
2022-12-24T17:01:11.298Z,96.49
2022-12-24T17:02:18.947Z,96.27
2022-12-24T17:03:21.468Z,96.09
2022-12-24T17:04:25.861Z,95.94
2022-12-24T17:05:30.656Z,96.11
2022-12-24T17:06:34.519Z,96.09
2022-12-24T17:07:43.105Z,95.88
2022-12-24T17:08:49.110Z,95.71
2022-12-24T17:09:51.049Z,95.66
2022-12-24T17:10:54.655Z,95.91
2022-12-24T17:11:58.249Z,95.69
2022-12-24T17:13:07.366Z,95.32
2022-12-24T17:14:20.013Z,95.05
2022-12-24T17:15:25.132Z,94.90
2022-12-24T17:16:31.025Z,95.34
2022-12-24T17:17:34.364Z,94.98
2022-12-24T17:18:37.859Z,95.26
2022-12-24T17:19:41.713Z,95.36
2022-12-24T17:20:44.988Z,95.35
2022-12-24T17:21:48.872Z,94.86
2022-12-24T17:22:52.617Z,95.00
2022-12-24T17:23:54.631Z,95.13
2022-12-24T17:24:57.905Z,95.29
2022-12-24T17:26:01.089Z,95.38
2022-12-24T17:27:04.538Z,95.50
2022-12-24T17:28:07.456Z,95.83
2022-12-24T17:29:12.292Z,96.14
2022-12-24T17:30:14.802Z,95.96
2022-12-24T17:31:18.867Z,96.41
2022-12-24T17:32:22.628Z,96.69
2022-12-24T17:33:24.773Z,97.67
2022-12-24T17:34:28.990Z,97.20
2022-12-24T17:35:35.764Z,97.32
2022-12-24T17:36:40.105Z,97.71
2022-12-24T17:37:44.405Z,97.75
2022-12-24T17:38:48.767Z,98.25
2022-12-24T17:39:52.737Z,98.08
2022-12-24T17:41:10.166Z,98.35
2022-12-24T17:42:13.752Z,98.39
2022-12-24T17:43:18.148Z,98.31
2022-12-24T17:44:22.842Z,98.51
2022-12-24T17:45:27.618Z,98.09
2022-12-24T17:46:31.177Z,98.47
2022-12-24T17:47:34.972Z,97.93
2022-12-24T17:48:41.700Z,98.46
2022-12-24T17:49:45.713Z,98.19
2022-12-24T17:50:48.926Z,98.21
2022-12-24T17:51:54.627Z,98.21
2022-12-24T17:52:58.084Z,98.19
2022-12-24T17:54:03.170Z,98.29
2022-12-24T17:55:05.832Z,98.29
2022-12-24T17:56:09.991Z,98.14
2022-12-24T17:57:13.343Z,97.55
2022-12-24T17:58:15.238Z,98.15
2022-12-24T17:59:19.251Z,98.09
2022-12-24T18:00:25.675Z,98.11
2022-12-24T18:01:31.075Z,98.16
2022-12-24T18:02:35.033Z,97.89
2022-12-24T18:03:37.750Z,98.25
2022-12-24T18:04:45.399Z,97.78
2022-12-24T18:05:48.687Z,97.78
2022-12-24T18:06:57.762Z,97.82
2022-12-24T18:08:04.426Z,98.03
2022-12-24T18:09:06.713Z,98.32
2022-12-24T18:10:11.586Z,97.89
2022-12-24T18:11:33.667Z,98.39
2022-12-24T18:12:39.713Z,98.18
2022-12-24T18:13:46.021Z,98.17
2022-12-24T18:14:49.801Z,98.30
2022-12-24T18:15:51.712Z,98.45
2022-12-24T18:16:55.102Z,98.51
2022-12-24T18:18:01.379Z,98.41
2022-12-24T18:19:05.933Z,98.61
2022-12-24T18:20:08.538Z,98.44
2022-12-24T18:21:11.868Z,98.46
2022-12-24T18:22:15.496Z,98.56
2022-12-24T18:23:18.946Z,98.39
2022-12-24T18:24:22.206Z,98.62
2022-12-24T18:25:25.462Z,98.28
2022-12-24T18:26:30.484Z,98.16
2022-12-24T18:27:36.631Z,97.87
2022-12-24T18:29:01.320Z,97.75
2022-12-24T18:30:07.913Z,98.08
2022-12-24T18:31:14.210Z,98.20
2022-12-24T18:32:17.504Z,98.01
2022-12-24T18:33:19.356Z,98.58
2022-12-24T18:34:21.369Z,98.41
2022-12-24T18:35:23.150Z,98.74
2022-12-24T18:36:33.688Z,98.14
2022-12-24T18:37:36.000Z,98.61
2022-12-24T18:38:39.760Z,98.60
2022-12-24T18:39:43.604Z,98.65
2022-12-24T18:40:46.948Z,99.08
2022-12-24T18:41:49.870Z,98.93
2022-12-24T18:42:52.021Z,98.86
2022-12-24T18:43:55.326Z,99.17
2022-12-24T18:44:57.215Z,99.45
2022-12-24T18:46:00.624Z,99.39
2022-12-24T18:47:04.273Z,99.47
2022-12-24T18:48:07.794Z,99.70
2022-12-24T18:49:11.485Z,99.52
2022-12-24T18:50:14.897Z,99.65
2022-12-24T18:51:18.850Z,99.50
2022-12-24T18:52:22.888Z,99.50
2022-12-24T18:53:26.725Z,99.33
2022-12-24T18:54:30.542Z,99.58
2022-12-24T18:55:37.158Z,99.50
2022-12-24T18:56:38.929Z,99.21
2022-12-24T18:57:40.775Z,98.91
2022-12-24T18:58:44.225Z,99.20
2022-12-24T18:59:46.116Z,99.37
2022-12-24T19:00:47.996Z,99.38
2022-12-24T19:01:51.531Z,99.16
2022-12-24T19:02:53.688Z,99.32
2022-12-24T19:03:59.233Z,99.10
2022-12-24T19:05:01.005Z,99.43
2022-12-24T19:06:04.811Z,98.87
2022-12-24T19:07:08.618Z,99.10
2022-12-24T19:08:47.131Z,98.71
2022-12-24T19:09:38.499Z,99.00
2022-12-24T19:10:40.531Z,99.16
2022-12-24T19:11:42.616Z,99.30
2022-12-24T19:12:44.876Z,99.28
2022-12-24T19:13:48.300Z,99.55
2022-12-24T19:14:51.450Z,99.15
2022-12-24T19:15:53.380Z,99.17
2022-12-24T19:16:56.773Z,99.36
2022-12-24T19:17:58.757Z,99.56
2022-12-24T19:19:00.980Z,99.61
2022-12-24T19:20:02.931Z,99.36
2022-12-24T19:21:07.578Z,99.43
2022-12-24T19:22:09.326Z,99.37
2022-12-24T19:23:11.211Z,99.63
2022-12-24T19:24:12.868Z,99.79
2022-12-24T19:25:14.667Z,99.74
2022-12-24T19:26:18.463Z,99.38
2022-12-24T19:27:22.334Z,99.71
2022-12-24T19:28:26.047Z,99.79
2022-12-24T19:29:28.460Z,99.45
2022-12-24T19:30:30.424Z,99.61
2022-12-24T19:31:32.452Z,99.58
2022-12-24T19:32:34.787Z,99.77
2022-12-24T19:33:44.995Z,99.38
2022-12-24T19:34:46.826Z,99.62
2022-12-24T19:35:48.676Z,99.73
2022-12-24T19:36:50.570Z,99.62
2022-12-24T19:37:52.434Z,99.82
2022-12-24T19:38:55.281Z,99.74
2022-12-24T19:39:57.158Z,99.68
2022-12-24T19:41:06.487Z,99.69
2022-12-24T19:42:08.273Z,99.67
2022-12-24T19:43:10.110Z,99.71
2022-12-24T19:44:11.914Z,99.22
2022-12-24T19:45:14.697Z,99.42
2022-12-24T19:46:20.488Z,99.76
2022-12-24T19:47:23.210Z,99.70
2022-12-24T19:48:25.304Z,99.54
2022-12-24T19:49:27.452Z,99.52
2022-12-24T19:50:29.676Z,99.33
2022-12-24T19:51:31.885Z,99.34
2022-12-24T19:52:33.955Z,99.65
2022-12-24T19:53:37.714Z,99.54
2022-12-24T19:54:41.362Z,99.78
2022-12-24T19:55:46.334Z,99.92
2022-12-24T19:56:48.228Z,100.00
2022-12-24T19:57:53.035Z,100.00
2022-12-24T19:58:56.229Z,100.00
2022-12-24T19:59:58.386Z,100.00
2022-12-24T20:01:14.455Z,100.00
2022-12-24T20:02:17.032Z,100.00
2022-12-24T20:03:19.222Z,100.00
2022-12-24T20:04:21.274Z,100.00
2022-12-24T20:05:22.993Z,100.00
2022-12-24T20:06:27.747Z,100.00
2022-12-24T20:07:29.484Z,100.00
2022-12-24T20:08:31.578Z,100.00
2022-12-24T20:09:33.408Z,100.00
2022-12-24T20:10:43.628Z,100.00
2022-12-24T20:11:45.827Z,100.00
2022-12-24T20:12:47.727Z,100.00
2022-12-24T20:13:49.644Z,100.00
2022-12-24T20:14:54.302Z,100.00
2022-12-24T20:15:56.112Z,100.00
2022-12-24T20:16:57.971Z,100.00
2022-12-24T20:17:59.879Z,100.00
2022-12-24T20:19:04.327Z,100.00
2022-12-24T20:20:06.962Z,100.00
2022-12-24T20:21:11.315Z,100.00
2022-12-24T20:22:13.006Z,100.00
2022-12-24T20:23:14.757Z,100.00
2022-12-24T20:24:16.614Z,100.00
2022-12-24T20:25:18.415Z,100.00
2022-12-24T20:26:23.549Z,100.00
2022-12-24T20:27:25.389Z,100.00
2022-12-24T20:28:28.607Z,100.00
2022-12-24T20:29:30.417Z,100.00
2022-12-24T20:30:35.669Z,100.00
2022-12-24T20:31:38.604Z,100.00
2022-12-24T20:32:40.709Z,100.00
2022-12-24T20:33:44.530Z,100.00
2022-12-24T20:34:46.387Z,100.00
2022-12-24T20:35:48.688Z,100.00
2022-12-24T20:36:50.937Z,100.00
2022-12-24T20:37:52.844Z,100.00
2022-12-24T20:38:56.683Z,100.00
2022-12-24T20:39:58.511Z,100.00
2022-12-24T20:41:00.327Z,100.00
2022-12-24T20:42:02.307Z,100.00
2022-12-24T20:43:04.278Z,100.00
2022-12-24T20:44:06.421Z,100.00
2022-12-24T20:45:08.562Z,100.00
2022-12-24T20:46:10.833Z,100.00
2022-12-24T20:47:12.866Z,100.00
2022-12-24T20:48:14.680Z,100.00
2022-12-24T20:49:16.502Z,100.00
2022-12-24T20:50:18.260Z,100.00
2022-12-24T20:51:26.095Z,100.00
2022-12-24T20:52:27.920Z,100.00
2022-12-24T20:53:29.764Z,100.00
2022-12-24T20:54:32.571Z,100.00
2022-12-24T20:55:37.608Z,100.00
2022-12-24T20:56:39.352Z,100.00
2022-12-24T20:57:41.124Z,100.00
2022-12-24T20:58:43.789Z,100.00
2022-12-24T20:59:45.698Z,100.00
2022-12-24T21:00:48.469Z,100.00
2022-12-24T21:01:50.476Z,100.00
2022-12-24T21:02:52.644Z,100.00
2022-12-24T21:03:56.460Z,100.00
2022-12-24T21:05:01.966Z,100.00
2022-12-24T21:06:04.747Z,100.00
2022-12-24T21:07:06.624Z,100.00